Time;durP1;ratioP1;P1;durP2;ratioP2;P2;SDS_P1;SDS_P2;PMS_P1;PMS_P2;Temp;Humidity;BMP_temperature;BMP_pressure;BME280_temperature;BME280_humidity;BME280_pressure;Samples;Min_cycle;Max_cycle;Signal;HPM_P1;HPM_P2
2024/04/19 00:01:26;;;;;;;7.93;3.88;;;;;;;3.61;81.51;98836.38;4924372;28;104322;-64
2024/04/19 00:03:52;;;;;;;6.95;4.30;;;;;;;3.72;81.02;98830.31;4928256;28;102771;-63
2024/04/19 00:06:18;;;;;;;6.25;3.83;;;;;;;3.77;81.54;98836.03;4926335;28;103170;-65
2024/04/19 00:08:44;;;;;;;6.63;4.07;;;;;;;3.68;81.42;98831.50;4917311;28;103141;-65
2024/04/19 00:11:10;;;;;;;6.60;3.88;;;;;;;3.59;81.26;98816.50;4901283;28;106098;-64
2024/04/19 00:13:35;;;;;;;8.45;5.00;;;;;;;3.68;81.46;98812.34;4903282;28;102783;-64
2024/04/19 00:16:03;;;;;;;9.02;5.85;;;;;;;3.51;81.37;98819.75;4906126;28;102948;-64
2024/04/19 00:18:29;;;;;;;7.85;4.95;;;;;;;3.46;81.98;98814.84;4927969;28;103561;-64
2024/04/19 00:20:56;;;;;;;11.23;6.40;;;;;;;3.28;81.96;98811.06;4924731;28;103480;-64
2024/04/19 00:23:24;;;;;;;9.73;5.65;;;;;;;3.38;82.21;98822.50;4927375;28;102964;-65
2024/04/19 00:30:27;;;;;;;10.00;6.10;;;;;;;3.19;81.51;98819.63;4942982;28;107715;-64
2024/04/19 00:32:53;;;;;;;9.52;4.78;;;;;;;3.39;81.67;98797.94;4925563;28;103799;-65
2024/04/19 00:35:22;;;;;;;7.95;4.40;;;;;;;3.29;81.96;98804.88;4906919;28;103239;-64
2024/04/19 00:37:47;;;;;;;8.70;5.50;;;;;;;3.39;81.93;98790.09;4922663;28;103565;-64
2024/04/19 00:40:32;;;;;;;7.15;4.47;;;;;;;3.37;81.63;98786.78;4927608;28;108170;-64
2024/04/19 00:42:58;;;;;;;9.10;5.20;;;;;;;3.37;81.00;98794.63;4928113;28;103388;-65
2024/04/19 00:45:38;;;;;;;7.70;4.45;;;;;;;3.27;81.25;98797.13;4926069;28;102796;-64
2024/04/19 00:48:17;;;;;;;9.18;4.95;;;;;;;3.20;81.89;98795.13;4921612;28;103711;-64
2024/04/19 01:47:01;;;;;;;6.82;3.38;;;;;;;3.55;81.82;98765.31;4936433;28;107686;-64
2024/04/19 01:49:27;;;;;;;8.82;4.70;;;;;;;3.45;81.20;98757.38;4937900;28;107695;-64
2024/04/19 01:51:52;;;;;;;6.20;3.75;;;;;;;3.60;81.62;98750.06;4926323;28;104629;-64
2024/04/19 01:54:18;;;;;;;7.30;4.50;;;;;;;3.61;81.26;98746.50;4927571;28;103153;-65
2024/04/19 01:56:44;;;;;;;7.57;4.72;;;;;;;3.39;81.07;98748.19;4921717;28;103227;-64
2024/04/19 02:57:18;;;;;;;5.85;3.50;;;;;;;4.19;75.06;98674.59;4939001;28;107431;-73
2024/04/19 02:59:44;;;;;;;7.35;4.00;;;;;;;4.18;75.17;98672.91;4916532;28;102988;-73
2024/04/19 03:02:12;;;;;;;7.45;3.63;;;;;;;4.32;75.07;98672.59;4919375;28;103182;-73
2024/04/19 03:04:38;;;;;;;8.32;4.15;;;;;;;4.27;74.51;98675.63;4881444;28;104635;-74
2024/04/19 03:16:16;;;;;;;14.18;4.10;;;;;;;4.38;74.76;98656.34;4939848;28;102988;-75
2024/04/19 03:18:42;;;;;;;7.22;3.72;;;;;;;4.39;73.84;98662.41;4921309;28;105330;-75
2024/04/19 03:21:08;;;;;;;8.02;3.92;;;;;;;4.48;73.96;98646.75;4927682;28;103210;-75
2024/04/19 03:23:36;;;;;;;7.03;3.60;;;;;;;4.59;73.83;98647.63;4925192;28;102988;-65
2024/04/19 03:26:02;;;;;;;10.23;4.05;;;;;;;4.53;72.71;98642.91;4927073;28;102907;-65
2024/04/19 03:28:29;;;;;;;8.63;4.00;;;;;;;4.50;72.57;98648.41;4923873;28;106325;-65
2024/04/19 03:30:59;;;;;;;8.68;4.13;;;;;;;4.56;72.54;98640.00;4918648;28;103213;-65
2024/04/19 03:33:25;;;;;;;8.48;4.47;;;;;;;4.57;72.33;98639.03;4918884;28;102863;-65
2024/04/19 03:35:51;;;;;;;8.48;4.53;;;;;;;4.58;72.37;98635.47;4904285;28;104448;-64
2024/04/19 03:38:17;;;;;;;10.85;4.45;;;;;;;4.64;72.36;98629.69;4921979;28;103262;-64
2024/04/19 03:40:54;;;;;;;7.63;3.78;;;;;;;4.70;72.45;98623.91;4923606;28;103284;-64
2024/04/19 03:43:21;;;;;;;8.80;4.22;;;;;;;4.66;72.46;98622.50;4918894;28;104181;-64
2024/04/19 03:45:47;;;;;;;10.15;4.95;;;;;;;4.67;72.14;98618.13;4904643;28;104715;-64
2024/04/19 03:48:13;;;;;;;10.55;4.32;;;;;;;4.68;71.80;98619.75;4909753;28;103545;-64
2024/04/19 03:50:39;;;;;;;7.28;4.50;;;;;;;4.73;72.65;98618.41;4905650;28;105372;-65
2024/04/19 03:53:05;;;;;;;8.68;4.45;;;;;;;4.71;72.06;98620.31;4924762;28;104451;-65
2024/04/19 03:55:34;;;;;;;7.88;4.18;;;;;;;4.79;72.29;98617.03;4925839;28;102921;-65
2024/04/19 03:57:59;;;;;;;8.55;4.43;;;;;;;4.82;72.11;98611.50;4904323;28;102798;-63
2024/04/19 04:00:25;;;;;;;7.80;4.45;;;;;;;4.80;71.51;98614.28;4917513;28;104418;-65
2024/04/19 04:02:52;;;;;;;9.25;4.47;;;;;;;4.80;71.54;98619.53;4904177;28;102862;-65
2024/04/19 04:05:18;;;;;;;8.02;4.40;;;;;;;4.80;71.55;98603.78;4907112;28;102810;-64
2024/04/19 04:07:44;;;;;;;5.88;3.50;;;;;;;4.92;71.94;98598.44;4923435;28;105680;-64
2024/04/19 04:10:10;;;;;;;7.38;4.07;;;;;;;4.81;72.37;98594.13;4926647;28;103222;-64
2024/04/19 04:12:38;;;;;;;9.00;3.80;;;;;;;4.79;71.40;98591.66;4924231;28;102966;-66
2024/04/19 04:15:04;;;;;;;8.30;4.13;;;;;;;4.77;70.37;98596.19;4908435;28;102959;-64
2024/04/19 04:17:30;;;;;;;9.45;4.18;;;;;;;4.79;71.44;98596.91;4922130;28;103334;-64
2024/04/19 04:19:56;;;;;;;8.57;4.10;;;;;;;4.77;70.78;98593.56;4923014;28;103787;-65
2024/04/19 04:26:54;;;;;;;7.43;3.55;;;;;;;4.83;70.88;98592.19;4939168;28;103017;-64
2024/04/19 04:29:20;;;;;;;8.00;4.20;;;;;;;4.86;70.99;98586.69;4889977;28;105901;-64
2024/04/19 04:31:46;;;;;;;9.45;4.10;;;;;;;4.92;70.85;98585.31;4911773;28;103604;-64
2024/04/19 04:34:12;;;;;;;7.88;4.00;;;;;;;4.89;70.95;98575.91;4904199;28;102871;-64
2024/04/19 04:36:38;;;;;;;8.55;4.07;;;;;;;4.93;70.76;98576.47;4911735;28;102827;-64
2024/04/19 04:39:06;;;;;;;6.18;3.35;;;;;;;4.97;70.50;98573.44;4922289;28;104377;-65
2024/04/19 04:41:36;;;;;;;9.27;3.85;;;;;;;5.07;70.83;98567.38;4948084;28;105300;-64
2024/04/19 04:44:02;;;;;;;8.43;4.30;;;;;;;5.00;71.63;98577.59;4904715;28;102929;-64
2024/04/19 04:46:30;;;;;;;8.48;3.92;;;;;;;5.03;71.20;98571.22;4915598;28;103381;-64
2024/04/19 04:48:56;;;;;;;10.10;4.95;;;;;;;5.00;71.47;98574.13;4918244;28;106005;-65
2024/04/19 04:51:22;;;;;;;7.93;4.43;;;;;;;5.09;71.23;98570.69;4896278;28;106104;-65
2024/04/19 04:53:48;;;;;;;10.50;5.45;;;;;;;5.00;71.36;98580.22;4901580;28;102968;-64
2024/04/19 04:56:14;;;;;;;9.00;4.28;;;;;;;5.00;71.56;98574.13;4892103;28;102853;-64
2024/04/19 04:58:40;;;;;;;11.13;4.90;;;;;;;5.10;71.47;98567.13;4900627;28;104006;-72
2024/04/19 05:01:06;;;;;;;11.65;5.03;;;;;;;5.07;71.87;98568.22;4885577;28;105177;-72
2024/04/19 05:03:32;;;;;;;10.13;4.97;;;;;;;5.03;71.56;98566.84;4887987;28;105083;-73
2024/04/19 05:05:57;;;;;;;7.82;4.55;;;;;;;5.20;71.41;98561.84;4898340;28;103924;-64
2024/04/19 05:08:23;;;;;;;7.57;4.38;;;;;;;5.06;71.24;98557.84;4889018;28;105665;-64
2024/04/19 05:39:42;;;;;;;7.15;4.50;;;;;;;5.30;69.66;98562.69;4941360;28;103032;-72
2024/04/19 05:42:08;;;;;;;8.07;3.95;;;;;;;5.31;68.75;98559.09;4922144;28;103870;-72
2024/04/19 05:44:36;;;;;;;8.52;4.30;;;;;;;5.28;68.50;98559.41;4910303;28;105928;-72
2024/04/19 05:47:05;;;;;;;7.55;4.05;;;;;;;5.39;68.38;98559.25;4906755;28;103096;-73
2024/04/19 05:49:34;;;;;;;8.98;4.45;;;;;;;5.38;68.20;98565.44;4947457;28;103182;-64
2024/04/19 05:52:00;;;;;;;9.00;4.20;;;;;;;5.61;68.63;98554.69;4916529;28;103330;-64
2024/04/19 05:54:26;;;;;;;7.72;3.55;;;;;;;5.63;68.18;98547.47;4920880;28;104561;-64
2024/04/19 05:56:52;;;;;;;8.82;3.72;;;;;;;5.61;68.40;98549.41;4924865;28;105047;-65
2024/04/19 05:59:18;;;;;;;10.77;3.70;;;;;;;5.63;68.45;98552.72;4907280;28;103737;-64
2024/04/19 06:01:45;;;;;;;10.82;3.63;;;;;;;5.67;67.91;98554.09;4915317;28;105559;-71
2024/04/19 06:04:12;;;;;;;6.53;3.95;;;;;;;5.77;67.81;98559.34;4892103;28;106685;-73
2024/04/19 06:06:38;;;;;;;7.47;4.05;;;;;;;5.74;67.89;98560.47;4914582;28;103240;-73
2024/04/19 06:09:06;;;;;;;9.15;3.90;;;;;;;5.78;68.48;98563.66;4919721;28;103195;-72
2024/04/19 06:11:32;;;;;;;7.68;3.70;;;;;;;5.68;68.56;98557.56;4917689;28;102843;-73
2024/04/19 06:13:58;;;;;;;7.88;3.50;;;;;;;5.84;69.37;98559.63;4926192;28;103418;-72
2024/04/19 06:16:24;;;;;;;7.25;3.20;;;;;;;5.66;70.13;98555.09;4914999;28;102700;-73
2024/04/19 06:18:52;;;;;;;9.65;3.65;;;;;;;5.83;69.65;98561.44;4920997;28;104114;-72
2024/04/19 06:21:20;;;;;;;5.90;3.35;;;;;;;5.94;69.69;98536.78;4931651;28;103172;-73
2024/04/19 06:23:48;;;;;;;7.80;3.58;;;;;;;5.91;70.37;98539.69;4911277;28;103381;-73
2024/04/19 06:26:14;;;;;;;8.85;3.50;;;;;;;5.74;70.03;98547.31;4889461;28;103919;-73
2024/04/19 06:28:41;;;;;;;8.57;3.53;;;;;;;5.72;69.91;98540.53;4920048;28;104582;-72
2024/04/19 06:31:10;;;;;;;7.55;3.58;;;;;;;5.86;69.88;98536.66;4921584;28;105253;-73
2024/04/19 06:33:37;;;;;;;5.57;3.20;;;;;;;5.76;69.10;98537.47;4922925;28;105516;-73
2024/04/19 06:36:03;;;;;;;13.07;2.95;;;;;;;5.93;68.89;98525.41;4925103;28;103904;-74
2024/04/19 06:38:29;;;;;;;6.38;3.08;;;;;;;5.96;68.90;98525.16;4904359;28;102813;-72
2024/04/19 06:40:55;;;;;;;7.55;3.67;;;;;;;6.01;68.37;98524.72;4919774;28;103269;-72
2024/04/19 06:43:21;;;;;;;6.22;3.05;;;;;;;5.99;67.69;98516.16;4897055;28;103154;-73
2024/04/19 06:45:46;;;;;;;5.90;2.72;;;;;;;6.11;68.38;98512.38;4920395;28;102875;-73
2024/04/19 06:48:15;;;;;;;5.63;2.92;;;;;;;6.17;67.53;98503.09;4920904;28;103235;-73
2024/04/19 06:50:40;;;;;;;5.13;2.80;;;;;;;6.21;67.45;98493.09;4900722;28;104466;-72
2024/04/19 06:53:06;;;;;;;6.78;3.45;;;;;;;6.34;68.00;98493.63;4918425;28;105390;-72
2024/04/19 06:55:35;;;;;;;5.13;3.08;;;;;;;6.38;67.04;98497.59;4915471;28;103335;-74
2024/04/19 06:58:01;;;;;;;5.13;2.90;;;;;;;6.61;67.12;98495.38;4921232;28;102993;-70
2024/04/19 07:00:29;;;;;;;6.18;2.97;;;;;;;6.78;67.13;98485.84;4927897;28;103572;-74
2024/04/19 07:02:55;;;;;;;7.00;3.58;;;;;;;6.85;66.89;98483.47;4886689;28;103619;-74
2024/04/19 07:05:22;;;;;;;6.78;3.22;;;;;;;6.69;66.70;98486.75;4920196;28;103134;-75
2024/04/19 07:07:49;;;;;;;5.60;3.17;;;;;;;6.58;66.77;98489.63;4925190;28;102788;-64
2024/04/19 07:10:22;;;;;;;5.68;2.97;;;;;;;6.67;67.52;98480.81;4918299;28;103128;-65
2024/04/19 07:12:51;;;;;;;6.35;3.38;;;;;;;6.79;67.24;98473.53;4904456;28;103797;-64
2024/04/19 07:15:17;;;;;;;6.72;3.50;;;;;;;6.54;67.09;98469.84;4916967;28;102986;-64
2024/04/19 07:17:43;;;;;;;6.10;3.45;;;;;;;6.69;67.78;98473.59;4921245;28;103517;-64
2024/04/19 07:20:11;;;;;;;6.97;3.10;;;;;;;6.71;67.74;98469.03;4915754;28;105203;-65
2024/04/19 07:22:37;;;;;;;7.72;3.40;;;;;;;6.68;67.07;98471.13;4892242;28;103431;-63
2024/04/19 07:25:03;;;;;;;7.30;3.25;;;;;;;6.64;67.39;98460.06;4901984;28;103073;-63
2024/04/19 07:27:34;;;;;;;8.40;3.40;;;;;;;6.53;68.09;98466.34;4919964;28;102796;-64
2024/04/19 07:30:02;;;;;;;7.65;3.60;;;;;;;6.33;67.66;98462.19;4917304;28;105392;-64
2024/04/19 07:32:28;;;;;;;5.55;3.10;;;;;;;6.56;68.26;98465.22;4913641;28;106114;-64
2024/04/19 07:34:55;;;;;;;6.82;3.25;;;;;;;6.38;69.04;98458.16;4908776;28;103842;-73
2024/04/19 07:37:21;;;;;;;6.50;2.95;;;;;;;6.09;69.14;98453.88;4919988;28;102809;-73
2024/04/19 07:39:47;;;;;;;7.88;3.20;;;;;;;6.29;69.73;98462.47;4918959;28;103779;-73
2024/04/19 07:42:13;;;;;;;6.13;3.60;;;;;;;6.10;69.85;98450.25;4905168;28;105600;-73
2024/04/19 07:44:39;;;;;;;6.25;3.15;;;;;;;6.08;69.68;98449.56;4922837;28;105461;-72
2024/04/19 07:47:04;;;;;;;6.00;3.30;;;;;;;6.34;70.83;98450.69;4900206;28;102873;-71
2024/04/19 07:49:30;;;;;;;6.10;3.28;;;;;;;6.17;70.79;98455.78;4889683;28;103836;-71
2024/04/19 07:51:56;;;;;;;5.80;3.65;;;;;;;6.13;71.71;98443.88;4894355;28;106613;-71
2024/04/19 07:54:22;;;;;;;8.55;3.45;;;;;;;6.18;72.02;98430.28;4887075;28;102851;-72
2024/04/19 07:56:50;;;;;;;6.03;3.50;;;;;;;6.32;71.60;98429.78;4920928;28;102804;-72
2024/04/19 07:59:18;;;;;;;5.90;3.42;;;;;;;6.36;72.43;98425.88;4900184;28;105359;-73
2024/04/19 08:01:48;;;;;;;4.20;2.90;;;;;;;6.28;72.85;98420.53;4918075;28;103153;-72
2024/04/19 08:04:14;;;;;;;6.90;3.10;;;;;;;6.08;71.98;98425.91;4914963;28;103358;-71
2024/04/19 08:06:40;;;;;;;4.43;2.67;;;;;;;5.85;72.68;98421.97;4922029;28;102985;-72
2024/04/19 08:09:06;;;;;;;5.65;3.25;;;;;;;5.86;74.02;98421.81;4923172;28;104898;-72
2024/04/19 08:11:32;;;;;;;4.30;2.67;;;;;;;5.82;73.33;98415.22;4909108;28;104530;-73
2024/04/19 08:13:57;;;;;;;5.28;2.65;;;;;;;6.09;73.21;98410.94;4915368;28;104021;-72
2024/04/19 08:16:23;;;;;;;4.63;2.78;;;;;;;6.02;73.27;98407.28;4904397;28;103742;-72
2024/04/19 08:18:49;;;;;;;4.95;2.90;;;;;;;5.71;74.07;98408.34;4922903;28;103241;-71
2024/04/19 08:21:17;;;;;;;4.20;2.60;;;;;;;5.67;75.14;98395.63;4900375;28;103570;-71
2024/04/19 08:23:43;;;;;;;4.05;2.50;;;;;;;5.59;75.12;98404.22;4919373;28;103118;-71
2024/04/19 08:26:09;;;;;;;3.53;2.50;;;;;;;5.67;75.37;98406.13;4919344;28;103535;-73
2024/04/19 08:28:35;;;;;;;4.68;2.83;;;;;;;5.69;75.39;98398.94;4895356;28;106001;-74
2024/04/19 08:31:01;;;;;;;4.22;2.45;;;;;;;5.87;75.08;98399.84;4901367;28;106166;-72
2024/04/19 08:33:27;;;;;;;6.78;2.33;;;;;;;5.59;75.63;98391.94;4906081;28;103312;-73
2024/04/19 08:35:56;;;;;;;3.85;2.85;;;;;;;5.70;76.30;98390.91;4916844;28;102936;-73
2024/04/19 08:38:23;;;;;;;4.35;2.70;;;;;;;5.56;75.99;98392.19;4918679;28;107828;-73
2024/04/19 08:40:56;;;;;;;3.97;2.10;;;;;;;5.59;76.46;98389.31;4920432;28;103283;-72
2024/04/19 08:43:22;;;;;;;3.83;2.25;;;;;;;5.54;77.14;98388.06;4923319;28;102930;-73
2024/04/19 08:45:50;;;;;;;5.72;2.22;;;;;;;5.18;76.32;98383.47;4918628;28;103805;-73
2024/04/19 08:48:19;;;;;;;3.60;2.15;;;;;;;5.24;76.79;98388.16;4902969;28;106284;-72
2024/04/19 08:50:45;;;;;;;5.65;3.05;;;;;;;5.33;77.49;98378.56;4920040;28;103211;-72
2024/04/19 08:53:16;;;;;;;4.18;2.03;;;;;;;5.44;77.08;98373.16;4921606;28;102866;-72
2024/04/19 08:55:41;;;;;;;6.05;3.00;;;;;;;5.20;77.70;98373.66;4940198;28;102895;-72
2024/04/19 08:58:07;;;;;;;5.30;2.47;;;;;;;5.43;77.92;98368.88;4904181;28;103460;-72
2024/04/19 09:00:33;;;;;;;5.25;2.20;;;;;;;5.26;77.76;98356.50;4918561;28;103389;-72
2024/04/19 09:02:59;;;;;;;3.47;2.05;;;;;;;5.09;77.62;98361.50;4900996;28;103920;-71
2024/04/19 09:05:28;;;;;;;3.38;2.10;;;;;;;4.89;77.75;98357.28;4922874;28;103542;-71
2024/04/19 09:07:54;;;;;;;5.35;2.00;;;;;;;4.76;77.41;98344.44;4901571;28;104270;-71
2024/04/19 09:10:20;;;;;;;3.20;1.95;;;;;;;5.10;78.75;98341.34;4908504;28;103195;-71
2024/04/19 09:12:46;;;;;;;5.10;2.00;;;;;;;5.28;78.18;98334.38;4890875;28;103743;-72
2024/04/19 09:15:11;;;;;;;2.20;1.60;;;;;;;5.22;78.43;98329.69;4919460;28;103413;-71
2024/04/19 09:17:38;;;;;;;4.15;2.20;;;;;;;5.23;78.01;98320.03;4912338;28;103894;-72
2024/04/19 09:20:05;;;;;;;3.45;2.38;;;;;;;5.39;78.97;98320.22;4918425;28;103793;-72
2024/04/19 09:22:34;;;;;;;3.08;2.08;;;;;;;5.30;77.29;98300.09;4924248;28;102771;-72
2024/04/19 09:24:59;;;;;;;4.82;1.92;;;;;;;5.05;77.68;98301.56;4922967;28;104081;-74
2024/04/19 09:27:29;;;;;;;3.03;1.73;;;;;;;5.16;77.31;98304.00;4918103;28;103916;-72
2024/04/19 09:29:56;;;;;;;2.30;1.90;;;;;;;4.85;77.83;98301.63;4924297;28;103293;-72
2024/04/19 09:32:22;;;;;;;7.40;2.50;;;;;;;5.14;78.35;98291.03;4923149;28;103056;-73
2024/04/19 09:34:49;;;;;;;2.55;1.70;;;;;;;4.87;78.63;98299.66;4919290;28;102882;-74
2024/04/19 09:37:15;;;;;;;5.60;2.03;;;;;;;5.13;78.02;98289.34;4920132;28;105320;-73
2024/04/19 09:39:41;;;;;;;3.33;2.05;;;;;;;5.09;78.64;98279.31;4916606;28;107530;-72
2024/04/19 09:42:09;;;;;;;3.72;2.00;;;;;;;5.02;78.71;98276.44;4920972;28;102838;-72
2024/04/19 09:44:37;;;;;;;3.05;1.88;;;;;;;5.18;78.53;98272.38;4919622;28;102917;-72
2024/04/19 09:47:04;;;;;;;6.25;2.20;;;;;;;5.17;78.05;98262.84;4920373;28;103259;-63
2024/04/19 09:49:34;;;;;;;4.13;2.13;;;;;;;5.20;78.12;98252.03;4909420;28;103254;-64
2024/04/19 09:52:02;;;;;;;3.80;1.98;;;;;;;5.06;78.38;98255.97;4918294;28;103211;-64
2024/04/19 09:54:39;;;;;;;2.83;1.83;;;;;;;5.05;78.43;98249.88;4917048;28;102842;-64
2024/04/19 09:57:07;;;;;;;3.72;2.13;;;;;;;5.08;78.98;98236.50;4893200;28;103247;-64
2024/04/19 09:59:35;;;;;;;3.13;2.13;;;;;;;4.93;77.98;98232.69;4919027;28;105297;-64
2024/04/19 10:02:02;;;;;;;3.78;2.42;;;;;;;4.88;79.34;98221.78;4905682;28;102923;-65
2024/04/19 10:04:32;;;;;;;3.58;2.22;;;;;;;5.05;79.47;98209.69;4922324;28;103492;-64
2024/04/19 10:06:58;;;;;;;4.28;2.25;;;;;;;5.11;79.64;98215.19;4890810;28;103277;-63
2024/04/19 10:09:27;;;;;;;6.25;1.85;;;;;;;5.06;78.30;98201.66;4918950;28;103243;-63
2024/04/19 10:11:56;;;;;;;4.15;2.38;;;;;;;5.05;79.76;98197.38;4915260;28;103371;-63
2024/04/19 10:14:29;;;;;;;3.40;2.20;;;;;;;5.04;79.07;98200.16;4914998;28;102917;-62
2024/04/19 10:16:55;;;;;;;4.57;2.08;;;;;;;4.99;78.93;98197.97;4916161;28;106490;-62
2024/04/19 10:19:22;;;;;;;5.72;2.53;;;;;;;4.96;79.33;98188.56;4914130;28;107712;-63
2024/04/19 10:21:54;;;;;;;5.18;2.35;;;;;;;4.89;78.83;98187.50;4888896;28;102884;-63
2024/04/19 10:24:20;;;;;;;4.30;2.65;;;;;;;4.94;80.34;98184.47;4918569;28;102910;-62
2024/04/19 10:26:54;;;;;;;3.53;2.50;;;;;;;5.00;79.88;98178.63;4877613;28;103312;-64
2024/04/19 10:29:42;;;;;;;5.10;2.13;;;;;;;4.96;79.38;98182.50;4896981;28;106114;-64
2024/04/19 10:32:56;;;;;;;4.27;2.73;;;;;;;5.09;79.48;98167.25;4940147;28;103157;-64
2024/04/19 10:35:44;;;;;;;5.10;2.63;;;;;;;5.20;79.17;98162.78;4912759;28;103433;-64
2024/04/19 10:38:29;;;;;;;5.28;2.78;;;;;;;5.10;78.62;98152.34;4858579;28;103258;-64
2024/04/19 10:41:27;;;;;;;4.65;2.25;;;;;;;5.26;78.67;98151.69;4877378;28;103083;-64
2024/04/19 10:43:55;;;;;;;6.32;2.35;;;;;;;5.21;78.23;98143.44;4898378;28;103876;-64
2024/04/19 10:46:25;;;;;;;4.18;2.80;;;;;;;5.31;79.88;98137.13;4882852;28;103120;-64
2024/04/19 10:48:51;;;;;;;4.45;2.67;;;;;;;5.28;79.09;98134.00;4903398;28;103832;-64
2024/04/19 10:51:20;;;;;;;5.45;2.72;;;;;;;5.43;79.40;98131.69;4879608;28;103345;-64
2024/04/19 10:53:47;;;;;;;4.00;2.38;;;;;;;5.38;79.31;98126.84;4894436;28;106410;-64
2024/04/19 10:56:14;;;;;;;4.95;2.97;;;;;;;5.33;79.11;98121.22;4894585;28;104255;-64
2024/04/19 10:58:39;;;;;;;3.80;2.30;;;;;;;5.42;79.53;98122.13;4878832;28;103526;-64
2024/04/19 11:01:06;;;;;;;5.85;2.60;;;;;;;5.55;78.70;98106.00;4893145;28;105076;-64
2024/04/19 11:03:32;;;;;;;4.15;2.63;;;;;;;5.58;79.52;98117.06;4893044;28;102875;-64
2024/04/19 11:06:02;;;;;;;3.17;2.15;;;;;;;5.34;79.27;98101.06;4867065;28;102785;-64
2024/04/19 11:08:33;;;;;;;4.57;2.58;;;;;;;5.56;79.67;98111.09;4896612;28;103842;-64
2024/04/19 11:11:00;;;;;;;3.75;2.15;;;;;;;5.38;78.96;98095.34;4897038;28;103394;-64
2024/04/19 11:13:28;;;;;;;3.63;2.50;;;;;;;5.38;79.52;98090.09;4881607;28;102961;-64
2024/04/19 11:15:56;;;;;;;3.88;2.22;;;;;;;5.28;78.77;98092.81;4872526;28;103274;-64
2024/04/19 11:18:22;;;;;;;3.15;1.80;;;;;;;5.35;79.13;98095.66;4872342;28;108165;-64
2024/04/19 11:20:48;;;;;;;3.38;2.10;;;;;;;5.48;79.85;98097.91;4879029;28;106343;-64
2024/04/19 11:23:14;;;;;;;3.67;1.90;;;;;;;5.34;80.22;98094.00;4889973;28;104517;-64
2024/04/19 11:25:41;;;;;;;2.38;1.75;;;;;;;5.38;80.23;98081.41;4876436;28;103631;-65
2024/04/19 11:28:08;;;;;;;3.33;2.00;;;;;;;5.19;80.28;98077.09;4883770;28;105363;-73
2024/04/19 11:30:39;;;;;;;3.45;1.83;;;;;;;5.18;79.99;98073.66;4910695;28;103341;-73
2024/04/19 11:33:11;;;;;;;2.30;1.67;;;;;;;5.23;79.85;98079.28;4886907;28;102856;-74
2024/04/19 11:35:41;;;;;;;3.05;1.85;;;;;;;5.30;80.35;98075.06;4917538;28;103948;-74
2024/04/19 11:38:11;;;;;;;2.10;1.67;;;;;;;5.31;80.12;98068.03;4901645;28;104925;-74
2024/04/19 11:40:37;;;;;;;4.72;1.58;;;;;;;5.38;79.26;98066.47;4921797;28;103808;-73
2024/04/19 11:43:03;;;;;;;2.25;1.55;;;;;;;5.55;79.83;98063.97;4904633;28;102730;-74
2024/04/19 11:45:29;;;;;;;1.23;1.08;;;;;;;5.46;79.96;98063.91;4898027;28;102788;-72
2024/04/19 11:47:58;;;;;;;3.42;1.70;;;;;;;5.37;79.10;98064.81;4914898;28;103763;-72
2024/04/19 11:50:28;;;;;;;1.90;1.40;;;;;;;5.22;78.97;98050.56;4929325;28;106218;-72
2024/04/19 11:52:54;;;;;;;2.38;1.30;;;;;;;5.46;79.55;98045.53;4916005;28;103728;-73
2024/04/19 11:55:20;;;;;;;5.28;1.48;;;;;;;5.28;79.23;98055.22;4911943;28;103660;-72
2024/04/19 11:57:46;;;;;;;3.58;1.48;;;;;;;5.34;80.14;98054.59;4904095;28;103145;-73
2024/04/19 12:00:14;;;;;;;2.47;1.33;;;;;;;5.17;78.44;98060.69;4896939;28;104616;-65
2024/04/19 12:02:41;;;;;;;2.10;1.02;;;;;;;5.44;79.43;98051.91;4910427;28;102847;-64
2024/04/19 12:05:06;;;;;;;1.25;0.90;;;;;;;5.11;78.97;98044.56;4877765;28;102936;-64
2024/04/19 12:07:32;;;;;;;5.03;1.10;;;;;;;5.19;79.99;98056.94;4914363;28;103172;-63
2024/04/19 12:09:59;;;;;;;1.52;1.10;;;;;;;5.18;79.45;98054.47;4927576;28;103364;-63
2024/04/19 12:12:25;;;;;;;0.85;0.85;;;;;;;5.08;78.93;98055.38;4910689;28;102860;-63
2024/04/19 12:14:51;;;;;;;1.35;0.80;;;;;;;5.24;79.32;98053.84;4914518;28;103076;-72
2024/04/19 12:17:17;;;;;;;1.35;0.85;;;;;;;5.18;79.58;98043.97;4907548;28;103977;-72
2024/04/19 12:19:43;;;;;;;2.28;0.80;;;;;;;4.96;78.49;98044.22;4893957;28;104375;-72
2024/04/19 12:22:09;;;;;;;1.67;0.90;;;;;;;5.15;79.96;98045.91;4910670;28;103810;-72
2024/04/19 12:24:37;;;;;;;1.17;0.70;;;;;;;5.18;79.38;98028.22;4878325;28;102821;-63
2024/04/19 12:27:07;;;;;;;1.40;0.90;;;;;;;5.34;79.52;98038.03;4893639;28;104218;-64
2024/04/19 12:29:36;;;;;;;3.38;0.90;;;;;;;5.40;79.68;98029.56;4892236;28;103308;-65
2024/04/19 12:32:04;;;;;;;1.10;0.85;;;;;;;5.52;79.68;98027.53;4895086;28;104988;-64
2024/04/19 12:34:30;;;;;;;3.67;0.90;;;;;;;5.14;78.98;98031.13;4891770;28;103387;-62
2024/04/19 12:36:59;;;;;;;1.10;0.80;;;;;;;5.10;78.21;98027.16;4898266;28;104244;-65
2024/04/19 12:39:26;;;;;;;1.05;0.70;;;;;;;5.46;79.17;98027.16;4910276;28;103326;-63
2024/04/19 12:41:53;;;;;;;1.27;0.85;;;;;;;5.60;80.05;98023.13;4899771;28;103021;-73
2024/04/19 12:44:19;;;;;;;1.75;0.80;;;;;;;5.58;79.52;98024.25;4899469;28;102825;-72
2024/04/19 12:46:50;;;;;;;1.10;0.90;;;;;;;5.44;78.71;98017.78;4883517;28;103426;-71
2024/04/19 12:49:21;;;;;;;0.82;0.70;;;;;;;5.48;78.67;98017.31;4892809;28;102829;-73
2024/04/19 12:51:48;;;;;;;3.10;0.80;;;;;;;5.68;78.81;98024.19;4888503;28;102929;-71
2024/04/19 12:54:17;;;;;;;1.63;1.00;;;;;;;5.41;77.88;98008.41;4898216;28;102890;-73
2024/04/19 12:56:45;;;;;;;1.33;0.90;;;;;;;5.57;78.63;98005.06;4907402;28;103580;-73
2024/04/19 12:59:11;;;;;;;3.50;0.93;;;;;;;5.57;77.61;98002.44;4889636;28;103241;-71
2024/04/19 13:01:37;;;;;;;1.02;0.60;;;;;;;5.70;78.32;98001.19;4894997;28;102800;-63
2024/04/19 13:04:04;;;;;;;1.20;0.80;;;;;;;5.57;78.33;97996.38;4895468;28;103171;-70
2024/04/19 13:06:33;;;;;;;1.30;0.90;;;;;;;5.48;78.18;97988.41;4878066;28;103696;-72
2024/04/19 13:09:00;;;;;;;1.80;0.93;;;;;;;5.42;78.36;97983.78;4916575;28;103712;-72
2024/04/19 13:11:26;;;;;;;1.23;0.80;;;;;;;5.54;78.63;97991.41;4898592;28;103918;-72
2024/04/19 13:13:54;;;;;;;3.70;0.70;;;;;;;5.44;77.42;97979.19;4892773;28;104282;-71
2024/04/19 13:16:23;;;;;;;1.25;0.70;;;;;;;5.58;78.26;97982.22;4893091;28;103280;-72
2024/04/19 13:18:49;;;;;;;3.17;1.00;;;;;;;5.70;78.22;97973.13;4891628;28;106741;-71
2024/04/19 13:21:16;;;;;;;0.80;0.60;;;;;;;5.67;77.49;97975.25;4911782;28;104315;-64
2024/04/19 13:23:42;;;;;;;1.13;0.70;;;;;;;5.67;77.95;97965.53;4882415;28;103567;-63
2024/04/19 13:26:08;;;;;;;0.60;0.60;;;;;;;5.69;77.90;97974.09;4892594;28;103471;-71
2024/04/19 13:28:34;;;;;;;0.70;0.60;;;;;;;5.75;77.11;97965.63;4892867;28;103815;-72
2024/04/19 13:31:01;;;;;;;2.28;1.02;;;;;;;5.53;78.08;97969.56;4897895;28;104113;-72
2024/04/19 13:33:27;;;;;;;0.60;0.50;;;;;;;5.59;77.73;97966.34;4885219;28;103316;-71
2024/04/19 13:35:53;;;;;;;0.45;0.45;;;;;;;5.65;77.32;97964.88;4891566;28;103830;-71
2024/04/19 13:38:19;;;;;;;0.93;0.57;;;;;;;5.78;77.83;97967.09;4893859;28;105219;-71
2024/04/19 13:40:45;;;;;;;0.60;0.60;;;;;;;5.80;77.12;97955.47;4912224;28;103518;-71
2024/04/19 13:43:11;;;;;;;2.70;0.50;;;;;;;5.86;77.58;97963.69;4901496;28;102818;-70
2024/04/19 13:45:38;;;;;;;0.90;0.70;;;;;;;5.76;77.17;97954.09;4912156;28;103722;-70
2024/04/19 13:48:05;;;;;;;0.68;0.60;;;;;;;5.78;77.61;97956.59;4899283;28;104597;-71
2024/04/19 13:50:31;;;;;;;0.95;0.70;;;;;;;5.68;78.23;97956.69;4891106;28;103231;-70
2024/04/19 13:53:04;;;;;;;0.90;0.70;;;;;;;5.45;77.83;97949.31;4896921;28;103982;-71
2024/04/19 13:55:31;;;;;;;0.70;0.52;;;;;;;5.59;77.67;97955.84;4912187;28;104106;-72
2024/04/19 13:57:57;;;;;;;0.57;0.57;;;;;;;5.53;77.38;97947.72;4878540;28;103862;-73
2024/04/19 14:00:23;;;;;;;0.68;0.60;;;;;;;5.46;77.84;97955.41;4885912;28;103105;-72
2024/04/19 14:02:51;;;;;;;1.17;0.80;;;;;;;5.35;78.03;97945.16;4893750;28;102840;-71
2024/04/19 14:05:19;;;;;;;1.98;0.80;;;;;;;5.72;79.23;97944.88;4877464;28;104605;-71
2024/04/19 14:07:47;;;;;;;1.27;0.50;;;;;;;5.48;79.31;97951.63;4912942;28;104424;-71
2024/04/19 14:10:17;;;;;;;0.55;0.50;;;;;;;5.34;78.71;97944.31;4905256;28;102942;-73
2024/04/19 14:12:52;;;;;;;0.98;0.68;;;;;;;5.45;79.60;97937.97;4919281;28;104298;-73
2024/04/19 14:15:18;;;;;;;3.97;0.60;;;;;;;5.39;79.58;97928.13;4923927;28;103571;-73
2024/04/19 14:17:43;;;;;;;3.05;0.70;;;;;;;5.63;79.51;97932.69;4894305;28;103562;-72